Time;durP1;ratioP1;P1;durP2;ratioP2;P2;SDS_P1;SDS_P2;PMS_P1;PMS_P2;Temp;Humidity;BMP_temperature;BMP_pressure;BME280_temperature;BME280_humidity;BME280_pressure;Samples;Min_cycle;Max_cycle;Signal;HPM_P1;HPM_P2
2023/08/09 00:00:32;;;;;;;1.77;1.00;;;;;;;14.74;100.00;101229.41;5069476;28;19920;-37
2023/08/09 00:03:00;;;;;;;;;;;;;;;14.84;100.00;101241.28;5071033;28;20028;-37
2023/08/09 00:05:26;;;;;;;2.33;1.02;;;;;;;14.72;100.00;101237.00;5069390;28;20427;-37
2023/08/09 00:07:51;;;;;;;3.55;1.30;;;;;;;14.72;100.00;101232.38;5070505;28;20039;-37
2023/08/09 00:10:16;;;;;;;;;;;;;;;14.83;100.00;101227.91;5061730;28;20028;-37
2023/08/09 00:12:42;;;;;;;1.15;0.90;;;;;;;14.55;100.00;101216.06;5056937;28;20015;-37
2023/08/09 00:15:07;;;;;;;;;;;;;;;14.78;100.00;101225.09;5057053;28;20028;-37
2023/08/09 00:17:33;;;;;;;2.53;0.98;;;;;;;14.66;100.00;101227.94;5056188;28;19909;-37
2023/08/09 00:19:58;;;;;;;;;;;;;;;14.79;100.00;101229.50;5056616;28;20028;-37
2023/08/09 00:22:24;;;;;;;1.45;0.93;;;;;;;14.64;100.00;101236.38;5056494;28;20306;-37
2023/08/09 00:24:49;;;;;;;;;;;;;;;14.79;100.00;101237.66;5056823;28;20575;-37
2023/08/09 00:27:17;;;;;;;1.00;0.90;;;;;;;14.63;100.00;101231.97;5056348;28;19904;-37
2023/08/09 00:29:42;;;;;;;1.90;1.10;;;;;;;14.69;100.00;101241.06;5055706;28;20017;-37
2023/08/09 00:32:08;;;;;;;1.27;1.08;;;;;;;14.65;100.00;101246.16;5056322;28;20468;-37
2023/08/09 00:34:33;;;;;;;;;;;;;;;14.79;100.00;101246.66;5056441;28;20025;-37
2023/08/09 00:36:59;;;;;;;1.60;1.23;;;;;;;14.62;100.00;101237.66;5055970;28;19912;-37
2023/08/09 00:39:25;;;;;;;1.63;1.33;;;;;;;14.52;100.00;101232.88;5056606;28;20290;-37
2023/08/09 00:41:50;;;;;;;2.10;1.40;;;;;;;14.56;100.00;101233.22;5056656;28;20024;-37
2023/08/09 00:44:16;;;;;;;1.65;1.30;;;;;;;14.51;100.00;101224.97;5056029;28;20365;-37
2023/08/09 00:46:42;;;;;;;1.67;1.40;;;;;;;14.56;100.00;101233.22;5055690;28;20439;-37
2023/08/09 00:49:07;;;;;;;;;;;;;;;14.70;100.00;101237.25;5056717;28;20086;-37
2023/08/09 00:51:33;;;;;;;1.92;1.40;;;;;;;14.58;100.00;101244.66;5056750;28;19905;-37
2023/08/09 00:53:58;;;;;;;;;;;;;;;14.70;100.00;101247.31;5056315;28;20059;-37
2023/08/09 00:56:24;;;;;;;1.45;1.20;;;;;;;14.61;100.00;101249.63;5056090;28;20256;-37
2023/08/09 00:58:49;;;;;;;;;;;;;;;14.70;100.00;101258.22;5056160;28;20048;-37
2023/08/09 01:01:14;;;;;;;1.70;1.40;;;;;;;14.64;100.00;101258.13;5056369;28;20295;-37
2023/08/09 01:03:40;;;;;;;1.80;1.45;;;;;;;14.64;100.00;101260.84;5055700;28;20348;-37
2023/08/09 01:06:26;;;;;;;;;;;;;;;14.75;100.00;101259.13;5056100;28;20024;-37
2023/08/09 01:09:03;;;;;;;1.52;1.30;;;;;;;14.66;100.00;101260.59;5055307;28;19917;-37
2023/08/09 01:11:45;;;;;;;1.95;1.40;;;;;;;14.60;100.00;101262.41;5055291;28;20021;-37
2023/08/09 01:14:12;;;;;;;1.50;1.40;;;;;;;14.51;100.00;101244.03;5055173;28;20021;-37
2023/08/09 01:16:37;;;;;;;1.73;1.42;;;;;;;14.62;100.00;101271.16;5054960;28;20027;-37
2023/08/09 01:19:07;;;;;;;;;;;;;;;14.74;100.00;101262.06;5055423;28;20025;-37
2023/08/09 01:21:37;;;;;;;1.73;1.30;;;;;;;14.64;100.00;101260.84;5054092;28;20368;-37
2023/08/09 01:24:03;;;;;;;2.47;1.35;;;;;;;14.61;100.00;101258.63;5055301;28;20074;-37
2023/08/09 01:26:29;;;;;;;1.80;1.27;;;;;;;14.55;100.00;101248.72;5054902;28;20530;-37
2023/08/09 01:28:54;;;;;;;1.58;1.27;;;;;;;14.57;100.00;101262.06;5054572;28;20116;-37
2023/08/09 01:31:20;;;;;;;2.22;1.33;;;;;;;14.52;100.00;101264.72;5055175;28;20110;-37
2023/08/09 01:33:46;;;;;;;;;;;;;;;14.63;100.00;101267.34;5055735;28;20025;-37
2023/08/09 01:36:19;;;;;;;2.53;1.52;;;;;;;14.37;100.00;101255.19;5055139;28;19966;-37
2023/08/09 01:38:53;;;;;;;1.67;1.25;;;;;;;14.37;100.00;101262.53;5054900;28;20106;-37
2023/08/09 01:41:19;;;;;;;2.97;1.33;;;;;;;14.28;100.00;101269.44;5054911;28;20452;-37
2023/08/09 01:43:46;;;;;;;2.08;1.27;;;;;;;14.23;100.00;101261.19;5054652;28;20102;-37
2023/08/09 01:46:13;;;;;;;1.63;1.33;;;;;;;14.22;100.00;101271.25;5054962;28;20388;-37
2023/08/09 01:48:38;;;;;;;1.70;1.40;;;;;;;14.19;100.00;101271.72;5055067;28;20113;-37
2023/08/09 01:51:04;;;;;;;2.15;1.23;;;;;;;14.19;100.00;101274.44;5055381;28;20112;-37
2023/08/09 01:53:29;;;;;;;1.52;1.30;;;;;;;14.12;100.00;101279.22;5054770;28;20017;-37
2023/08/09 01:55:55;;;;;;;3.50;1.70;;;;;;;14.05;100.00;101275.81;5054970;28;20052;-37
2023/08/09 01:58:20;;;;;;;;;;;;;;;14.18;100.00;101273.63;5055069;28;20047;-37
2023/08/09 02:00:46;;;;;;;1.63;1.50;;;;;;;14.01;100.00;101280.13;5054621;28;19908;-37
2023/08/09 02:03:11;;;;;;;1.83;1.40;;;;;;;13.89;100.00;101270.09;5054045;28;20259;-37
2023/08/09 02:05:38;;;;;;;1.55;1.40;;;;;;;13.91;100.00;101286.19;5053956;28;20303;-37
2023/08/09 02:08:04;;;;;;;2.05;1.30;;;;;;;13.88;100.00;101286.66;5054192;28;20021;-37
2023/08/09 02:10:30;;;;;;;2.53;1.58;;;;;;;13.75;100.00;101271.44;5054953;28;20025;-37
2023/08/09 02:12:55;;;;;;;2.03;1.40;;;;;;;13.80;100.00;101290.56;5054454;28;20025;-37
2023/08/09 02:15:21;;;;;;;2.55;1.50;;;;;;;13.78;100.00;101294.63;5054126;28;20032;-37
2023/08/09 02:17:49;;;;;;;2.33;1.40;;;;;;;13.63;100.00;101276.94;5054557;28;20025;-37
2023/08/09 02:20:14;;;;;;;1.90;1.70;;;;;;;13.78;100.00;101291.91;5054210;28;20048;-37
2023/08/09 02:22:41;;;;;;;2.03;1.40;;;;;;;13.77;100.00;101293.78;5054294;28;20028;-37
2023/08/09 02:25:09;;;;;;;1.60;1.40;;;;;;;13.72;100.00;101306.47;5053874;28;20373;-37
2023/08/09 02:27:34;;;;;;;3.15;1.92;;;;;;;13.71;100.00;101302.88;5054677;28;20036;-37
2023/08/09 02:30:03;;;;;;;;;;;;;;;13.85;100.00;101301.53;5054470;28;20369;-37
2023/08/09 02:32:29;;;;;;;2.35;1.65;;;;;;;13.63;100.00;101295.94;5053543;28;19908;-37
2023/08/09 02:34:55;;;;;;;2.13;1.50;;;;;;;13.67;100.00;101301.75;5053985;28;20029;-37
2023/08/09 02:37:20;;;;;;;1.87;1.60;;;;;;;13.67;100.00;101318.03;5053873;28;20520;-37
2023/08/09 02:39:46;;;;;;;2.05;1.50;;;;;;;13.64;100.00;101319.34;5053670;28;20290;-37
2023/08/09 02:42:11;;;;;;;2.45;1.80;;;;;;;13.61;100.00;101325.25;5054049;28;20031;-36
2023/08/09 02:44:36;;;;;;;;;;;;;;;13.77;100.00;101317.44;5053982;28;20021;-36
2023/08/09 02:47:03;;;;;;;1.80;1.70;;;;;;;13.59;100.00;101321.94;5054223;28;19943;-36
2023/08/09 02:49:28;;;;;;;;;;;;;;;13.70;100.00;101324.88;5053993;28;20333;-37
2023/08/09 02:51:53;;;;;;;3.60;2.50;;;;;;;13.44;100.00;101318.91;5053509;28;19905;-37
2023/08/09 02:54:19;;;;;;;1.95;1.70;;;;;;;13.42;100.00;101333.78;5053804;28;20021;-36
2023/08/09 02:56:44;;;;;;;1.75;1.65;;;;;;;13.30;100.00;101312.06;5053622;28;20021;-37
2023/08/09 02:59:09;;;;;;;1.65;1.40;;;;;;;13.37;100.00;101326.34;5053927;28;20033;-37
2023/08/09 03:01:35;;;;;;;;;;;;;;;13.51;100.00;101341.31;5053601;28;20047;-37
2023/08/09 03:04:00;;;;;;;2.23;1.50;;;;;;;13.31;100.00;101327.28;5053466;28;19912;-37
2023/08/09 03:06:25;;;;;;;2.00;1.40;;;;;;;13.34;100.00;101341.25;5053751;28;20247;-37
2023/08/09 03:08:52;;;;;;;2.78;1.50;;;;;;;13.40;100.00;101345.72;5053646;28;20310;-37
2023/08/09 03:11:21;;;;;;;2.10;1.90;;;;;;;13.45;100.00;101341.47;5054233;28;20396;-37
2023/08/09 03:13:46;;;;;;;2.58;1.75;;;;;;;13.45;100.00;101347.72;5053259;28;20445;-37
2023/08/09 03:16:12;;;;;;;3.73;2.07;;;;;;;13.42;100.00;101340.06;5053879;28;20032;-37
2023/08/09 03:18:39;;;;;;;4.50;2.00;;;;;;;13.36;100.00;101327.41;5052869;28;20271;-37
2023/08/09 03:21:04;;;;;;;3.50;2.10;;;;;;;13.42;100.00;101329.19;5054123;28;20099;-37
2023/08/09 03:23:29;;;;;;;;;;;;;;;13.56;100.00;101332.47;5053727;28;20025;-37
2023/08/09 03:25:55;;;;;;;7.10;1.63;;;;;;;13.39;100.00;101332.38;5053337;28;19927;-38
2023/08/09 03:28:20;;;;;;;2.13;1.57;;;;;;;13.27;100.00;101324.22;5053247;28;20271;-35
2023/08/09 03:30:45;;;;;;;2.13;1.80;;;;;;;13.31;100.00;101330.00;5053987;28;20267;-35
2023/08/09 03:33:11;;;;;;;1.73;1.63;;;;;;;13.28;100.00;101350.34;5053495;28;20025;-36
2023/08/09 03:35:36;;;;;;;1.60;1.50;;;;;;;13.28;100.00;101360.38;5053187;28;20469;-36
2023/08/09 03:38:02;;;;;;;1.97;1.77;;;;;;;13.26;100.00;101367.91;5053691;28;20079;-35
2023/08/09 03:40:27;;;;;;;1.60;1.50;;;;;;;13.24;100.00;101365.44;5052797;28;20346;-36
2023/08/09 03:42:52;;;;;;;2.35;1.70;;;;;;;13.22;100.00;101370.28;5053764;28;20025;-37
2023/08/09 03:45:18;;;;;;;3.03;1.60;;;;;;;13.16;100.00;101379.34;5054478;28;20025;-37
2023/08/09 03:47:43;;;;;;;2.28;1.75;;;;;;;13.05;100.00;101367.41;5057458;28;20251;-37
2023/08/09 03:50:09;;;;;;;1.88;1.70;;;;;;;13.12;100.00;101384.41;5056858;28;20456;-37
2023/08/09 03:52:34;;;;;;;;;;;;;;;13.26;100.00;101389.66;5056949;28;20479;-37
2023/08/09 03:55:00;;;;;;;2.10;1.67;;;;;;;13.10;100.00;101372.13;5056444;28;19909;-36
2023/08/09 03:57:27;;;;;;;2.90;1.80;;;;;;;13.03;100.00;101383.13;5056201;28;20266;-36
2023/08/09 03:59:53;;;;;;;3.00;1.70;;;;;;;12.92;100.00;101374.94;5056491;28;20021;-37
2023/08/09 04:02:19;;;;;;;2.10;1.90;;;;;;;12.92;100.00;101383.91;5056590;28;20032;-36
2023/08/09 04:04:44;;;;;;;2.13;1.80;;;;;;;12.93;100.00;101382.84;5056319;28;20450;-36
2023/08/09 04:07:10;;;;;;;2.00;1.80;;;;;;;12.91;100.00;101398.53;5056574;28;20025;-37
2023/08/09 04:09:35;;;;;;;1.80;1.70;;;;;;;12.91;100.00;101387.69;5056395;28;20263;-36
2023/08/09 04:12:03;;;;;;;2.28;2.00;;;;;;;12.88;100.00;101393.56;5056490;28;20083;-36
2023/08/09 04:14:28;;;;;;;2.30;1.65;;;;;;;12.96;100.00;101393.25;5056337;28;20099;-37
2023/08/09 04:16:54;;;;;;;2.25;2.00;;;;;;;12.97;100.00;101400.31;5056615;28;20035;-37
2023/08/09 04:19:19;;;;;;;2.60;2.40;;;;;;;12.89;100.00;101395.25;5056181;28;20017;-37
2023/08/09 04:21:45;;;;;;;3.33;2.30;;;;;;;12.99;100.00;101397.41;5056249;28;20025;-37
2023/08/09 04:24:10;;;;;;;2.72;2.38;;;;;;;12.99;100.00;101391.97;5055935;28;20021;-37
2023/08/09 04:26:36;;;;;;;2.30;2.10;;;;;;;12.94;100.00;101384.53;5056212;28;20381;-37
2023/08/09 04:29:02;;;;;;;2.25;2.03;;;;;;;12.83;100.00;101366.31;5055788;28;20040;-37
2023/08/09 04:31:28;;;;;;;;;;;;;;;13.08;100.00;101399.53;5056488;28;20021;-37
2023/08/09 04:33:53;;;;;;;2.20;2.00;;;;;;;12.97;100.00;101405.75;5055978;28;19911;-37
2023/08/09 04:36:19;;;;;;;3.90;1.98;;;;;;;12.94;100.00;101403.53;5056319;28;20445;-37
2023/08/09 04:38:45;;;;;;;2.50;2.30;;;;;;;12.93;100.00;101403.72;5055542;28;20056;-37
2023/08/09 04:41:10;;;;;;;2.28;2.08;;;;;;;12.86;100.00;101393.00;5056197;28;20247;-36
2023/08/09 04:43:39;;;;;;;2.60;2.03;;;;;;;13.00;100.00;101413.44;5055835;28;20032;-36
2023/08/09 04:46:05;;;;;;;2.22;2.03;;;;;;;12.94;100.00;101400.81;5055468;28;20264;-37
2023/08/09 04:48:30;;;;;;;2.30;2.10;;;;;;;13.05;100.00;101404.59;5055408;28;20028;-37
2023/08/09 04:50:56;;;;;;;3.03;2.55;;;;;;;13.09;100.00;101419.38;5056349;28;20108;-36
2023/08/09 04:53:21;;;;;;;2.47;2.28;;;;;;;13.05;100.00;101408.13;5056195;28;20112;-37
2023/08/09 04:55:47;;;;;;;2.30;2.00;;;;;;;13.23;100.00;101409.16;5055548;28;20059;-37
2023/08/09 04:58:12;;;;;;;2.97;2.67;;;;;;;13.20;100.00;101410.41;5055611;28;20044;-37
2023/08/09 05:00:38;;;;;;;3.17;2.78;;;;;;;13.22;100.00;101415.63;5055195;28;20449;-37
2023/08/09 05:03:04;;;;;;;3.10;2.60;;;;;;;13.23;100.00;101406.44;5055998;28;20048;-37
2023/08/09 05:05:31;;;;;;;2.47;2.28;;;;;;;13.40;100.00;101419.06;5054734;28;20041;-37
2023/08/09 05:07:56;;;;;;;3.53;2.70;;;;;;;13.43;100.00;101419.66;5055116;28;20017;-37
2023/08/09 05:10:22;;;;;;;2.63;2.42;;;;;;;13.55;100.00;101424.03;5054924;28;20416;-37
2023/08/09 05:12:47;;;;;;;3.33;2.60;;;;;;;13.55;100.00;101420.47;5055251;28;20024;-37
2023/08/09 05:15:12;;;;;;;3.40;3.10;;;;;;;13.56;100.00;101424.84;5054990;28;20021;-37
2023/08/09 05:17:38;;;;;;;3.93;3.30;;;;;;;13.68;100.00;101439.28;5055306;28;20251;-36
2023/08/09 05:20:04;;;;;;;4.50;4.10;;;;;;;13.71;100.00;101427.09;5054855;28;20260;-36
2023/08/09 05:22:29;;;;;;;4.78;3.80;;;;;;;13.81;100.00;101438.19;5055341;28;20088;-37
2023/08/09 05:24:54;;;;;;;5.18;4.68;;;;;;;13.89;100.00;101433.22;5054436;28;20453;-37
2023/08/09 05:27:20;;;;;;;5.68;5.15;;;;;;;13.87;100.00;101437.25;5054931;28;20442;-37
2023/08/09 05:29:45;;;;;;;5.60;5.10;;;;;;;14.02;100.00;101451.19;5054893;28;20417;-37
2023/08/09 05:32:11;;;;;;;6.75;6.15;;;;;;;14.07;100.00;101448.56;5055749;28;20453;-37
2023/08/09 05:34:37;;;;;;;6.72;6.13;;;;;;;14.12;100.00;101451.38;5054815;28;20017;-37
2023/08/09 05:37:03;;;;;;;7.63;6.93;;;;;;;14.17;100.00;101456.94;5055396;28;20021;-37
2023/08/09 05:39:28;;;;;;;;;;;;;;;14.35;100.00;101455.94;5055624;28;20360;-37
2023/08/09 05:41:53;;;;;;;8.30;7.50;;;;;;;14.34;100.00;101448.00;5054747;28;19909;-37
2023/08/09 05:44:18;;;;;;;8.50;7.60;;;;;;;14.45;100.00;101459.94;5054686;28;20090;-37
2023/08/09 05:46:44;;;;;;;;;;;;;;;14.62;100.00;101455.41;5055078;28;20029;-37
2023/08/09 05:49:09;;;;;;;8.23;7.43;;;;;;;14.56;100.00;101446.31;5054514;28;19909;-36
2023/08/09 05:51:35;;;;;;;8.57;7.70;;;;;;;14.58;100.00;101443.34;5054583;28;20305;-36
2023/08/09 05:54:01;;;;;;;9.95;8.77;;;;;;;14.62;100.00;101456.22;5054969;28;20021;-37
2023/08/09 05:56:26;;;;;;;;;;;;;;;14.78;100.00;101461.97;5054837;28;20469;-37
2023/08/09 05:58:52;;;;;;;9.75;8.75;;;;;;;14.65;100.00;101458.47;5054369;28;19964;-37
2023/08/09 06:01:17;;;;;;;10.52;9.52;;;;;;;14.61;100.00;101459.19;5054454;28;20041;-37
2023/08/09 06:03:42;;;;;;;;;;;;;;;14.72;100.00;101465.66;5054985;28;20025;-37
2023/08/09 06:06:08;;;;;;;10.47;9.40;;;;;;;14.66;100.00;101470.19;5055068;28;19909;-37
2023/08/09 06:08:37;;;;;;;10.70;9.60;;;;;;;14.62;100.00;101483.44;5053343;28;20090;-36
2023/08/09 06:11:03;;;;;;;10.95;9.95;;;;;;;14.62;100.00;101475.28;5054734;28;20032;-37
2023/08/09 06:13:28;;;;;;;11.73;10.63;;;;;;;14.67;100.00;101486.25;5053790;28;20016;-37
2023/08/09 06:15:54;;;;;;;;;;;;;;;14.79;100.00;101491.69;5054282;28;20450;-37
2023/08/09 06:18:19;;;;;;;12.53;11.40;;;;;;;14.72;100.00;101484.72;5054030;28;19915;-37
2023/08/09 06:20:44;;;;;;;11.68;10.57;;;;;;;14.67;100.00;101483.53;5054314;28;20854;-37
2023/08/09 06:23:10;;;;;;;;;;;;;;;14.91;100.00;101508.78;5055264;28;20024;-37
2023/08/09 06:25:36;;;;;;;14.90;12.70;;;;;;;14.80;100.00;101509.66;5054245;28;19912;-37
2023/08/09 06:28:01;;;;;;;14.48;13.10;;;;;;;14.78;100.00;101509.06;5053881;28;20028;-37
2023/08/09 06:30:26;;;;;;;;;;;;;;;14.92;100.00;101507.69;5054714;28;20021;-37
2023/08/09 06:32:53;;;;;;;14.37;12.50;;;;;;;14.82;100.00;101509.41;5053808;28;19905;-37
2023/08/09 06:35:18;;;;;;;13.38;12.05;;;;;;;14.84;100.00;101507.28;5053901;28;20670;-36
2023/08/09 06:37:46;;;;;;;14.40;12.90;;;;;;;14.94;100.00;101523.81;5054235;28;20090;-37
2023/08/09 06:40:11;;;;;;;15.32;13.80;;;;;;;14.90;100.00;101514.47;5053650;28;20020;-37
2023/08/09 06:42:38;;;;;;;15.32;13.82;;;;;;;14.88;100.00;101519.31;5053725;28;20120;-37
2023/08/09 06:45:05;;;;;;;15.45;13.93;;;;;;;14.82;100.00;101515.69;5053359;28;20468;-37
2023/08/09 06:47:31;;;;;;;14.55;13.05;;;;;;;14.84;100.00;101521.72;5053915;28;20025;-37
2023/08/09 06:49:56;;;;;;;15.40;13.90;;;;;;;14.85;100.00;101525.28;5053509;28;20023;-37
2023/08/09 06:52:22;;;;;;;15.13;13.55;;;;;;;14.81;100.00;101513.22;5053850;28;20067;-36
2023/08/09 06:54:47;;;;;;;;;;;;;;;15.00;100.00;101531.00;5053951;28;20025;-36
2023/08/09 06:57:12;;;;;;;13.60;12.20;;;;;;;14.96;100.00;101527.13;5053985;28;19905;-37
2023/08/09 06:59:38;;;;;;;14.02;12.52;;;;;;;15.00;100.00;101533.72;5054114;28;20342;-36
2023/08/09 07:02:03;;;;;;;;;;;;;;;15.11;100.00;101541.00;5053731;28;20307;-37
2023/08/09 07:04:29;;;;;;;12.55;11.18;;;;;;;15.04;100.00;101524.00;5053364;28;19979;-36
2023/08/09 07:06:54;;;;;;;;;;;;;;;15.25;100.00;101546.16;5054040;28;20083;-37
2023/08/09 07:09:20;;;;;;;13.43;11.90;;;;;;;15.19;100.00;101537.91;5053242;28;19916;-37
2023/08/09 07:11:46;;;;;;;;;;;;;;;15.32;100.00;101535.94;5054633;28;20029;-37
2023/08/09 07:14:11;;;;;;;14.90;12.18;;;;;;;15.24;100.00;101539.06;5054533;28;19948;-37
2023/08/09 07:16:37;;;;;;;12.73;11.43;;;;;;;15.30;100.00;101543.53;5054214;28;20102;-37
2023/08/09 07:19:02;;;;;;;12.45;11.05;;;;;;;15.37;100.00;101555.09;5052994;28;20056;-37
2023/08/09 07:21:28;;;;;;;;;;;;;;;15.56;100.00;101545.63;5057913;28;20021;-37
2023/08/09 07:23:53;;;;;;;12.88;11.57;;;;;;;15.47;100.00;101544.41;5057628;28;20002;-37
2023/08/09 07:26:19;;;;;;;;;;;;;;;15.64;100.00;101544.41;5058063;28;20207;-37
2023/08/09 07:28:44;;;;;;;13.52;12.18;;;;;;;15.58;100.00;101542.66;5057287;28;20260;-37
2023/08/09 07:31:20;;;;;;;13.02;11.73;;;;;;;15.70;100.00;101549.69;5057598;28;20334;-37
2023/08/09 07:33:46;;;;;;;12.70;11.35;;;;;;;15.82;100.00;101546.09;5057456;28;20028;-37
2023/08/09 07:36:12;;;;;;;11.80;10.45;;;;;;;15.92;100.00;101551.69;5057414;28;20350;-37
2023/08/09 07:38:37;;;;;;;12.95;10.73;;;;;;;16.00;100.00;101553.97;5056682;28;20024;-37
2023/08/09 07:41:03;;;;;;;;;;;;;;;16.21;100.00;101555.13;5057748;28;20035;-37
2023/08/09 07:43:28;;;;;;;11.43;10.23;;;;;;;16.15;100.00;101551.50;5056650;28;20414;-37
2023/08/09 07:45:54;;;;;;;;;;;;;;;16.37;100.00;101550.69;5057957;28;20025;-37
2023/08/09 07:48:19;;;;;;;9.93;8.93;;;;;;;16.34;100.00;101562.09;5057430;28;19904;-37
2023/08/09 07:50:45;;;;;;;;;;;;;;;16.55;100.00;101560.50;5057231;28;20048;-37
2023/08/09 07:53:10;;;;;;;9.82;8.25;;;;;;;16.53;100.00;101554.44;5057619;28;19931;-37
2023/08/09 07:55:36;;;;;;;;;;;;;;;16.73;100.00;101560.19;5057683;28;20021;-37
2023/08/09 07:58:01;;;;;;;9.52;8.27;;;;;;;16.78;100.00;101570.34;5056923;28;19913;-37
2023/08/09 08:00:26;;;;;;;;;;;;;;;16.95;100.00;101566.47;5057063;28;20194;-37
2023/08/09 08:02:52;;;;;;;9.32;7.25;;;;;;;16.92;100.00;101563.41;5057437;28;19920;-37
2023/08/09 08:05:17;;;;;;;;;;;;;;;17.06;100.00;101572.88;5057296;28;20119;-37
2023/08/09 08:07:43;;;;;;;8.00;6.68;;;;;;;16.86;100.00;101561.72;5056821;28;19908;-37
2023/08/09 08:10:09;;;;;;;;;;;;;;;16.99;100.00;101572.25;5056853;28;20028;-37
2023/08/09 08:12:38;;;;;;;8.15;7.28;;;;;;;16.87;100.00;101563.34;5057290;28;19909;-37
2023/08/09 08:15:04;;;;;;;8.27;7.18;;;;;;;16.88;100.00;101579.47;5056274;28;20032;-37
2023/08/09 08:17:29;;;;;;;;;;;;;;;17.02;100.00;101579.91;5057045;28;20021;-37
2023/08/09 08:19:55;;;;;;;8.05;7.25;;;;;;;16.98;100.00;101581.50;5056490;28;19991;-37
2023/08/09 08:22:20;;;;;;;;;;;;;;;17.20;100.00;101585.03;5057282;28;20045;-37
2023/08/09 08:24:45;;;;;;;9.03;7.77;;;;;;;17.27;100.00;101586.75;5056477;28;19905;-37
2023/08/09 08:27:11;;;;;;;;;;;;;;;17.48;100.00;101585.88;5057213;28;20569;-37
2023/08/09 08:29:36;;;;;;;7.35;6.53;;;;;;;17.50;100.00;101598.19;5055825;28;19905;-37
2023/08/09 08:32:02;;;;;;;;;;;;;;;17.71;100.00;101596.50;5056617;28;20091;-37
2023/08/09 08:34:31;;;;;;;8.10;6.90;;;;;;;17.69;100.00;101603.28;5056009;28;19905;-37
2023/08/09 08:36:57;;;;;;;7.43;6.70;;;;;;;17.67;100.00;101589.88;5056481;28;20024;-37
2023/08/09 08:39:23;;;;;;;;;;;;;;;18.00;100.00;101602.47;5056783;28;20391;-37
2023/08/09 08:41:50;;;;;;;7.82;6.05;;;;;;;17.92;100.00;101589.28;5056436;28;19909;-37
2023/08/09 08:44:15;;;;;;;6.35;5.63;;;;;;;17.99;100.00;101602.75;5055800;28;20032;-37
2023/08/09 08:46:41;;;;;;;;;;;;;;;18.27;100.00;101605.13;5055936;28;20025;-37
2023/08/09 08:49:13;;;;;;;6.00;5.40;;;;;;;18.20;100.00;101615.50;5055417;28;19909;-37
2023/08/09 08:51:40;;;;;;;6.75;5.50;;;;;;;18.32;100.00;101617.22;5055693;28;20032;-37
2023/08/09 08:54:06;;;;;;;5.80;5.20;;;;;;;18.39;100.00;101609.56;5055679;28;20096;-37
2023/08/09 08:56:32;;;;;;;;;;;;;;;18.62;100.00;101620.13;5056080;28;20028;-37
2023/08/09 08:58:58;;;;;;;6.63;5.90;;;;;;;18.53;100.00;101613.50;5055502;28;19913;-37
2023/08/09 09:01:25;;;;;;;7.82;6.00;;;;;;;18.52;100.00;101609.94;5055584;28;20115;-37
2023/08/09 09:03:50;;;;;;;6.82;6.05;;;;;;;18.59;100.00;101628.03;5055486;28;20025;-37
2023/08/09 09:06:15;;;;;;;;;;;;;;;18.88;100.00;101625.75;5055876;28;20366;-37
2023/08/09 09:08:42;;;;;;;7.78;6.97;;;;;;;18.69;100.00;101620.75;5055667;28;19913;-37
2023/08/09 09:11:15;;;;;;;8.20;7.13;;;;;;;18.71;100.00;101615.81;5055398;28;20048;-37
2023/08/09 09:13:41;;;;;;;8.60;7.57;;;;;;;18.88;100.00;101621.09;5055271;28;20056;-37
2023/08/09 09:16:07;;;;;;;;;;;;;;;19.16;100.00;101627.22;5056005;28;20091;-37
2023/08/09 09:18:40;;;;;;;7.10;6.47;;;;;;;18.96;100.00;101637.03;5055400;28;19931;-37
2023/08/09 09:21:09;;;;;;;7.43;6.72;;;;;;;19.11;100.00;101629.97;5056006;28;20045;-37
2023/08/09 09:23:36;;;;;;;6.93;6.22;;;;;;;19.13;100.00;101639.56;5055901;28;20025;-37
2023/08/09 09:26:14;;;;;;;8.57;6.50;;;;;;;19.21;100.00;101638.22;5055610;28;20031;-37
2023/08/09 09:28:47;;;;;;;8.85;8.05;;;;;;;19.22;100.00;101648.06;5055331;28;20032;-37
2023/08/09 09:31:14;;;;;;;7.90;7.10;;;;;;;19.01;100.00;101647.19;5055772;28;20017;-37
2023/08/09 09:33:46;;;;;;;7.90;7.20;;;;;;;19.04;100.00;101636.53;5054879;28;20029;-44
2023/08/09 09:36:12;;;;;;;8.02;7.18;;;;;;;19.19;100.00;101641.22;5055141;28;20024;-37
2023/08/09 09:38:39;;;;;;;8.77;7.88;;;;;;;19.46;100.00;101634.72;5054405;28;20456;-37
2023/08/09 09:41:07;;;;;;;9.40;8.43;;;;;;;19.54;100.00;101631.44;5054791;28;20108;-37
2023/08/09 09:43:33;;;;;;;8.10;7.18;;;;;;;19.36;100.00;101626.47;5053797;28;20031;-37
2023/08/09 09:46:00;;;;;;;8.35;7.55;;;;;;;19.27;100.00;101645.34;5055202;28;20075;-37
2023/08/09 09:48:26;;;;;;;8.60;7.75;;;;;;;19.55;100.00;101644.06;5055445;28;20372;-37
2023/08/09 09:50:53;;;;;;;8.77;7.90;;;;;;;19.69;100.00;101631.47;5054217;28;20564;-38
2023/08/09 09:53:19;;;;;;;8.40;7.63;;;;;;;19.70;100.00;101635.88;5054510;28;20407;-42
2023/08/09 09:55:46;;;;;;;8.57;7.65;;;;;;;19.66;100.00;101623.78;5054209;28;20445;-38
2023/08/09 09:58:14;;;;;;;8.15;7.35;;;;;;;19.70;100.00;101643.28;5054609;28;20037;-38
2023/08/09 10:00:47;;;;;;;8.45;7.65;;;;;;;19.58;100.00;101628.97;5054206;28;20047;-38
2023/08/09 10:03:15;;;;;;;9.98;7.88;;;;;;;19.74;100.00;101634.22;5054367;28;20021;-38
2023/08/09 10:05:44;;;;;;;9.95;8.95;;;;;;;19.86;100.00;101625.72;5053498;28;20028;-38
2023/08/09 10:08:12;;;;;;;8.60;7.70;;;;;;;19.76;100.00;101621.09;5053970;28;20056;-38
2023/08/09 10:10:39;;;;;;;7.55;6.85;;;;;;;19.77;100.00;101632.88;5054210;28;20036;-38
2023/08/09 10:13:07;;;;;;;8.18;7.43;;;;;;;19.66;100.00;101636.69;5054148;28;20487;-37
2023/08/09 10:15:36;;;;;;;8.05;7.22;;;;;;;19.82;100.00;101632.88;5054343;28;20033;-37
2023/08/09 10:18:10;;;;;;;8.40;6.93;;;;;;;20.01;100.00;101635.91;5054012;28;20040;-37
2023/08/09 10:20:50;;;;;;;7.57;5.80;;;;;;;20.24;100.00;101618.84;5054607;28;20012;-37
2023/08/09 10:23:21;;;;;;;5.95;5.32;;;;;;;20.42;100.00;101627.59;5054844;28;20071;-37
2023/08/09 10:25:48;;;;;;;7.45;6.68;;;;;;;20.42;99.31;101630.34;5053898;28;20035;-37
2023/08/09 10:28:13;;;;;;;9.35;6.78;;;;;;;20.36;100.00;101629.53;5054000;28;20021;-37
2023/08/09 10:30:48;;;;;;;8.38;5.93;;;;;;;20.43;99.21;101637.47;5053578;28;20028;-37
2023/08/09 10:33:19;;;;;;;6.20;5.60;;;;;;;20.39;98.90;101641.88;5054152;28;20024;-37
2023/08/09 10:35:50;;;;;;;8.43;6.35;;;;;;;20.08;100.00;101622.72;5054054;28;20094;-37
2023/08/09 10:38:25;;;;;;;7.30;6.05;;;;;;;20.18;100.00;101644.66;5053675;28;20021;-37
2023/08/09 10:40:52;;;;;;;6.30;5.10;;;;;;;20.12;100.00;101651.25;5053727;28;20028;-38
2023/08/09 10:43:20;;;;;;;6.25;5.00;;;;;;;20.34;100.00;101648.22;5053687;28;20481;-38
2023/08/09 10:45:48;;;;;;;4.63;4.22;;;;;;;20.34;100.00;101650.94;5053909;28;20032;-37
2023/08/09 10:48:19;;;;;;;4.65;4.07;;;;;;;20.10;98.32;101642.47;5053657;28;20029;-37
2023/08/09 10:50:45;;;;;;;5.38;3.80;;;;;;;20.21;98.47;101640.56;5053560;28;20028;-37
2023/08/09 10:53:10;;;;;;;4.30;3.53;;;;;;;20.24;95.22;101637.25;5054075;28;20025;-37
2023/08/09 10:55:36;;;;;;;4.05;3.65;;;;;;;20.39;98.00;101641.88;5053040;28;20017;-37
2023/08/09 10:58:02;;;;;;;4.22;3.33;;;;;;;20.67;97.25;101644.06;5053557;28;20032;-38
2023/08/09 11:00:37;;;;;;;3.75;2.90;;;;;;;20.89;97.35;101643.72;5054014;28;20072;-37
2023/08/09 11:03:04;;;;;;;3.17;2.37;;;;;;;20.92;90.76;101648.63;5054036;28;20024;-38
2023/08/09 11:05:29;;;;;;;3.40;2.45;;;;;;;20.85;90.12;101644.56;5053427;28;20267;-37
2023/08/09 11:07:57;;;;;;;4.53;2.40;;;;;;;20.67;92.46;101641.31;5054265;28;20021;-37
2023/08/09 11:10:40;;;;;;;7.43;3.08;;;;;;;20.55;95.79;101625.13;5053389;28;20444;-37
2023/08/09 11:13:12;;;;;;;4.45;2.78;;;;;;;20.29;93.89;101634.47;5053418;28;20032;-38
2023/08/09 11:15:41;;;;;;;5.63;2.55;;;;;;;20.26;93.17;101641.38;5053329;28;20155;-37
2023/08/09 11:18:06;;;;;;;3.22;2.40;;;;;;;20.26;99.71;101638.63;5053365;28;20464;-38
2023/08/09 11:20:32;;;;;;;4.57;2.40;;;;;;;20.37;91.62;101652.34;5053557;28;20150;-37
2023/08/09 11:22:58;;;;;;;6.32;2.10;;;;;;;20.59;94.61;101644.63;5053591;28;20051;-38